createdAt,value
2019-03-08T00:01:40.821Z,25.19
2019-03-08T00:04:10.624Z,25.19
2019-03-08T00:06:40.222Z,24.96
2019-03-08T00:09:09.673Z,25.21
2019-03-08T00:11:39.543Z,25.21
2019-03-08T00:14:09.076Z,25.22
2019-03-08T00:16:38.513Z,25.26
2019-03-08T00:19:10.087Z,25.31
2019-03-08T00:21:39.301Z,25.33
2019-03-08T00:24:10.915Z,25.35
2019-03-08T00:26:40.435Z,25.37
2019-03-08T00:29:10.052Z,25.40
2019-03-08T00:31:39.695Z,25.42
2019-03-08T00:34:09.217Z,25.44
2019-03-08T00:36:38.736Z,25.48
2019-03-08T00:39:08.286Z,25.51
2019-03-08T00:41:37.771Z,25.53
2019-03-08T00:44:07.388Z,25.55
2019-03-08T00:46:36.866Z,25.58
2019-03-08T00:49:08.012Z,25.60
2019-03-08T00:51:37.725Z,25.60
2019-03-08T00:54:07.160Z,25.56
2019-03-08T00:56:36.647Z,25.51
2019-03-08T00:59:06.394Z,25.46
2019-03-08T01:01:35.928Z,25.42
2019-03-08T01:04:05.441Z,25.40
2019-03-08T01:06:34.904Z,25.39
2019-03-08T01:09:05.591Z,25.39
2019-03-08T01:11:35.204Z,25.38
2019-03-08T01:14:04.845Z,25.37
2019-03-08T01:16:34.390Z,25.37
2019-03-08T01:19:03.929Z,25.36
2019-03-08T01:21:33.441Z,25.34
2019-03-08T01:24:03.054Z,25.32
2019-03-08T01:26:32.663Z,25.30
2019-03-08T01:29:02.120Z,25.27
2019-03-08T01:31:32.010Z,25.26
2019-03-08T01:34:01.500Z,25.23
2019-03-08T01:36:30.955Z,25.21
2019-03-08T01:39:00.808Z,25.21
2019-03-08T01:41:30.664Z,25.18
2019-03-08T01:44:00.132Z,25.19
2019-03-08T01:46:29.658Z,25.22
2019-03-08T01:48:59.138Z,25.27
2019-03-08T01:51:28.764Z,25.32
2019-03-08T01:53:58.394Z,25.36
2019-03-08T01:56:27.987Z,25.40
2019-03-08T01:58:57.417Z,25.42
2019-03-08T02:01:26.988Z,25.43
2019-03-08T02:03:56.503Z,25.44
2019-03-08T02:06:26.312Z,25.40
2019-03-08T02:08:55.892Z,25.36
2019-03-08T02:11:25.354Z,25.31
2019-03-08T02:13:54.797Z,25.29
2019-03-08T02:16:24.336Z,25.26
2019-03-08T02:18:53.792Z,25.24
2019-03-08T02:21:23.245Z,25.23
2019-03-08T02:23:52.697Z,25.21
2019-03-08T02:26:22.204Z,25.20
2019-03-08T02:28:52.102Z,25.18
2019-03-08T02:31:21.549Z,25.16
2019-03-08T02:33:51.349Z,25.15
2019-03-08T02:36:20.851Z,25.12
2019-03-08T02:38:50.364Z,25.10
2019-03-08T02:41:19.902Z,25.09
2019-03-08T02:43:49.408Z,25.08
2019-03-08T02:46:18.978Z,25.08
2019-03-08T02:48:48.505Z,25.07
2019-03-08T02:51:19.422Z,25.09
2019-03-08T02:53:49.001Z,25.16
2019-03-08T02:56:18.641Z,25.23
2019-03-08T02:58:48.111Z,25.30
2019-03-08T03:01:17.641Z,25.35
2019-03-08T03:03:47.226Z,25.37
2019-03-08T03:06:16.706Z,25.36
2019-03-08T03:08:46.205Z,25.31
2019-03-08T03:11:15.726Z,25.25
2019-03-08T03:13:45.198Z,25.21
2019-03-08T03:16:14.650Z,25.19
2019-03-08T03:18:44.170Z,25.18
2019-03-08T03:21:13.600Z,25.17
2019-03-08T03:23:43.043Z,25.16
2019-03-08T03:26:12.602Z,25.14
2019-03-08T03:28:42.223Z,25.15
2019-03-08T03:31:11.813Z,25.14
2019-03-08T03:33:41.298Z,25.13
2019-03-08T03:36:10.756Z,25.11
2019-03-08T03:38:40.230Z,25.09
2019-03-08T03:41:09.937Z,25.08
2019-03-08T03:43:39.410Z,25.07
2019-03-08T03:46:08.858Z,25.04
2019-03-08T03:48:38.331Z,25.03
2019-03-08T03:51:07.876Z,25.02
2019-03-08T03:53:37.311Z,25.02
2019-03-08T03:56:06.975Z,25.03
2019-03-08T03:58:36.479Z,25.03
2019-03-08T04:01:22.437Z,25.04
2019-03-08T04:03:51.916Z,25.03
2019-03-08T04:06:21.598Z,25.06
2019-03-08T04:08:51.095Z,25.11
2019-03-08T04:11:20.655Z,25.18
2019-03-08T04:13:50.111Z,25.24
2019-03-08T04:16:19.699Z,25.27
2019-03-08T04:18:49.166Z,25.24
2019-03-08T04:21:18.677Z,25.21
2019-03-08T04:23:48.180Z,25.18
2019-03-08T04:26:17.673Z,25.16
2019-03-08T04:28:47.170Z,25.14
2019-03-08T04:31:16.695Z,25.12
2019-03-08T04:33:46.249Z,25.12
2019-03-08T04:36:15.714Z,25.13
2019-03-08T04:38:45.226Z,25.14
2019-03-08T04:41:14.711Z,25.15
2019-03-08T04:43:44.189Z,25.13
2019-03-08T04:46:13.732Z,25.12
2019-03-08T04:48:43.394Z,25.13
2019-03-08T04:51:12.899Z,25.11
2019-03-08T04:53:42.441Z,25.10
2019-03-08T04:56:11.901Z,25.09
2019-03-08T04:58:41.359Z,25.08
2019-03-08T05:01:11.014Z,25.08
2019-03-08T05:03:40.486Z,25.07
2019-03-08T05:06:09.959Z,25.06
2019-03-08T05:08:39.479Z,25.05
2019-03-08T05:11:08.946Z,25.05
2019-03-08T05:13:38.415Z,25.03
2019-03-08T05:16:08.326Z,24.36
2019-03-08T05:18:37.904Z,25.03
2019-03-08T05:21:07.361Z,25.08
2019-03-08T05:23:36.898Z,25.08
2019-03-08T05:26:06.508Z,25.06
2019-03-08T05:28:35.969Z,25.04
2019-03-08T05:31:05.602Z,25.03
2019-03-08T05:33:35.118Z,25.02
2019-03-08T05:36:04.577Z,25.04
2019-03-08T05:38:34.033Z,25.03
2019-03-08T05:41:03.640Z,25.02
2019-03-08T05:43:33.305Z,25.03
2019-03-08T05:46:02.798Z,25.05
2019-03-08T05:48:33.788Z,25.06
2019-03-08T05:51:03.252Z,25.06
2019-03-08T05:53:32.750Z,25.05
2019-03-08T05:56:02.253Z,25.06
2019-03-08T05:58:31.742Z,25.08
2019-03-08T06:01:01.239Z,25.08
2019-03-08T06:03:30.737Z,25.08
2019-03-08T06:06:00.179Z,25.10
2019-03-08T06:08:29.768Z,25.09
2019-03-08T06:11:00.240Z,25.08
2019-03-08T06:13:29.697Z,25.06
2019-03-08T06:15:59.235Z,25.06
2019-03-08T06:18:28.741Z,25.08
2019-03-08T06:20:58.198Z,25.15
2019-03-08T06:23:27.737Z,25.23
2019-03-08T06:25:57.679Z,25.30
2019-03-08T06:28:27.131Z,25.37
2019-03-08T06:30:56.688Z,25.40
2019-03-08T06:33:26.160Z,25.40
2019-03-08T06:35:55.646Z,25.42
2019-03-08T06:38:25.163Z,25.44
2019-03-08T06:40:54.969Z,25.44
2019-03-08T06:43:24.457Z,25.45
2019-03-08T06:45:53.916Z,25.44
2019-03-08T06:48:23.377Z,25.45
2019-03-08T06:50:52.965Z,25.44
2019-03-08T06:53:22.438Z,25.42
2019-03-08T06:55:51.901Z,25.41
2019-03-08T06:58:42.221Z,25.38
2019-03-08T07:01:14.912Z,25.35
2019-03-08T07:03:44.383Z,25.30
2019-03-08T07:06:13.959Z,25.28
2019-03-08T07:08:43.426Z,25.29
2019-03-08T07:11:12.919Z,25.32
2019-03-08T07:13:42.407Z,25.32
2019-03-08T07:16:14.906Z,25.30
2019-03-08T07:18:44.889Z,25.32
2019-03-08T07:21:31.904Z,25.36
2019-03-08T07:24:32.581Z,25.39
2019-03-08T07:27:15.496Z,25.39
2019-03-08T07:30:15.770Z,25.34
2019-03-08T07:32:55.973Z,25.30
2019-03-08T07:35:53.050Z,25.28
2019-03-08T07:38:38.766Z,25.30
2019-03-08T07:41:17.408Z,25.31
2019-03-08T07:44:14.594Z,25.29
2019-03-08T07:46:59.423Z,25.23
2019-03-08T07:49:56.445Z,25.16
2019-03-08T07:52:37.223Z,25.12
2019-03-08T07:55:24.169Z,25.07
2019-03-08T07:58:15.404Z,25.04
2019-03-08T08:01:06.759Z,25.00
2019-03-08T08:03:58.088Z,24.98
2019-03-08T08:06:51.210Z,24.96
2019-03-08T08:09:39.642Z,24.95
2019-03-08T08:12:31.003Z,24.91
2019-03-08T08:15:19.416Z,24.89
2019-03-08T08:18:03.494Z,24.87
2019-03-08T08:20:48.813Z,24.86
2019-03-08T08:23:49.524Z,24.86
2019-03-08T08:26:42.346Z,24.85
2019-03-08T08:29:35.064Z,24.85
2019-03-08T08:32:19.313Z,24.85
2019-03-08T08:35:11.231Z,24.85
2019-03-08T08:38:05.347Z,24.84
2019-03-08T08:40:52.325Z,24.84
2019-03-08T08:43:38.588Z,24.82
2019-03-08T08:46:29.741Z,24.81
2019-03-08T08:49:23.952Z,24.80
2019-03-08T08:52:12.295Z,24.80
2019-03-08T08:55:01.624Z,24.79
2019-03-08T08:57:48.853Z,24.79
2019-03-08T09:00:37.890Z,24.78
2019-03-08T09:03:25.376Z,24.77
2019-03-08T09:06:20.942Z,24.76
2019-03-08T09:09:07.901Z,24.74
2019-03-08T09:11:56.296Z,24.73
2019-03-08T09:14:36.545Z,24.71
2019-03-08T09:17:11.689Z,24.72
2019-03-08T09:20:03.125Z,24.71
2019-03-08T09:22:51.501Z,24.71
2019-03-08T09:25:35.023Z,24.71
2019-03-08T09:28:16.710Z,24.71
2019-03-08T09:31:08.230Z,24.70
2019-03-08T09:33:53.440Z,24.70
2019-03-08T09:36:40.866Z,24.70
2019-03-08T09:39:35.340Z,24.69
2019-03-08T09:42:26.805Z,24.69
2019-03-08T09:45:14.223Z,24.69
2019-03-08T09:48:02.766Z,24.68
2019-03-08T09:50:39.251Z,24.68
2019-03-08T09:53:36.713Z,24.68
2019-03-08T09:56:22.185Z,24.69
2019-03-08T09:59:27.502Z,24.67
2019-03-08T10:02:19.418Z,24.67
2019-03-08T10:05:17.103Z,24.65
2019-03-08T10:08:11.942Z,24.65
2019-03-08T10:11:06.158Z,24.64
2019-03-08T10:13:50.973Z,24.63
2019-03-08T10:16:27.544Z,24.63
2019-03-08T10:19:31.353Z,24.44
2019-03-08T10:22:08.966Z,24.63
2019-03-08T10:25:09.605Z,24.62
2019-03-08T10:28:03.795Z,24.62
2019-03-08T10:30:45.814Z,24.62
2019-03-08T10:33:26.452Z,24.62
2019-03-08T10:36:20.528Z,24.62
2019-03-08T10:39:11.848Z,24.62
2019-03-08T10:42:00.247Z,24.63
2019-03-08T10:44:44.381Z,24.63
2019-03-08T10:47:38.508Z,24.63
2019-03-08T10:50:18.761Z,24.62
2019-03-08T10:53:00.574Z,24.63
2019-03-08T10:55:43.291Z,24.64
2019-03-08T10:58:43.625Z,24.64
2019-03-08T11:01:41.072Z,24.63
2019-03-08T11:04:34.378Z,24.62
2019-03-08T11:07:21.023Z,24.61
2019-03-08T11:10:10.452Z,24.60
2019-03-08T11:12:53.984Z,24.60
2019-03-08T11:15:42.336Z,24.58
2019-03-08T11:18:21.316Z,24.58
2019-03-08T11:21:05.724Z,24.58
2019-03-08T11:23:51.427Z,24.58
2019-03-08T11:26:47.685Z,24.58
2019-03-08T11:29:38.878Z,24.59
2019-03-08T11:32:22.778Z,24.58
2019-03-08T11:35:04.769Z,24.58
2019-03-08T11:37:55.960Z,24.58
2019-03-08T11:40:44.155Z,24.58
2019-03-08T11:43:47.712Z,24.59
2019-03-08T11:46:31.169Z,24.61
2019-03-08T11:49:28.851Z,24.61
2019-03-08T11:52:22.460Z,24.61
2019-03-08T11:55:09.760Z,24.62
2019-03-08T11:57:56.867Z,24.62
2019-03-08T12:01:04.047Z,24.63
2019-03-08T12:03:55.447Z,24.61
2019-03-08T12:06:35.630Z,24.61
2019-03-08T12:09:19.805Z,24.62
2019-03-08T12:12:16.991Z,24.62
2019-03-08T12:14:57.042Z,24.64
2019-03-08T12:17:51.039Z,24.63
2019-03-08T12:20:39.585Z,24.65
2019-03-08T12:23:18.649Z,24.65
2019-03-08T12:26:00.893Z,24.65
2019-03-08T12:28:48.051Z,24.67
2019-03-08T12:31:39.181Z,24.68
2019-03-08T12:34:30.829Z,24.68
2019-03-08T12:37:17.747Z,24.68
2019-03-08T12:40:09.462Z,24.69
2019-03-08T12:42:57.843Z,24.68
2019-03-08T12:45:49.736Z,24.69
2019-03-08T12:48:53.331Z,24.70
2019-03-08T12:51:30.067Z,24.71
2019-03-08T12:54:22.035Z,24.71
2019-03-08T12:57:12.954Z,24.71
2019-03-08T13:00:03.981Z,24.71
2019-03-08T13:02:58.134Z,24.72
2019-03-08T13:05:46.744Z,24.74
2019-03-08T13:08:44.237Z,24.74
2019-03-08T13:11:13.740Z,24.75
2019-03-08T13:13:43.257Z,24.75
2019-03-08T13:16:12.921Z,24.76
2019-03-08T13:18:42.439Z,24.78
2019-03-08T13:21:11.905Z,24.77
2019-03-08T13:23:41.355Z,24.77
2019-03-08T13:26:10.891Z,24.78
2019-03-08T13:28:40.385Z,24.79
2019-03-08T13:31:09.936Z,24.79
2019-03-08T13:33:39.457Z,24.78
2019-03-08T13:36:09.623Z,24.79
2019-03-08T13:38:39.084Z,24.79
2019-03-08T13:41:08.646Z,24.80
2019-03-08T13:43:38.435Z,24.80
2019-03-08T13:46:08.010Z,24.76
2019-03-08T13:48:37.563Z,24.81
2019-03-08T13:51:07.180Z,24.81
2019-03-08T13:53:36.637Z,24.81
2019-03-08T13:56:06.370Z,24.83
2019-03-08T13:58:38.112Z,24.84
2019-03-08T14:01:07.880Z,24.84
2019-03-08T14:03:37.830Z,24.83
2019-03-08T14:06:08.443Z,24.84
2019-03-08T14:08:38.015Z,24.85
2019-03-08T14:11:07.696Z,24.85
2019-03-08T14:13:37.391Z,24.86
2019-03-08T14:16:06.882Z,24.86
2019-03-08T14:18:36.430Z,24.86
2019-03-08T14:21:06.210Z,24.87
2019-03-08T14:23:36.124Z,24.87
2019-03-08T14:26:06.224Z,24.88
2019-03-08T14:28:35.830Z,24.89
2019-03-08T14:31:14.524Z,24.90
2019-03-08T14:33:46.343Z,24.89
2019-03-08T14:36:16.002Z,24.91
2019-03-08T14:38:45.541Z,24.92
2019-03-08T14:41:24.536Z,24.91
2019-03-08T14:44:10.980Z,24.91
2019-03-08T14:46:56.492Z,24.93
2019-03-08T14:49:25.286Z,24.91
2019-03-08T14:51:54.775Z,24.91
2019-03-08T14:54:24.686Z,24.90
2019-03-08T14:56:54.244Z,24.90
2019-03-08T14:59:23.832Z,24.90
2019-03-08T15:01:53.362Z,24.90
2019-03-08T15:04:22.871Z,24.91
2019-03-08T15:06:52.775Z,24.91
2019-03-08T15:09:22.339Z,24.91
2019-03-08T15:11:52.176Z,24.91
2019-03-08T15:14:21.885Z,24.91
2019-03-08T15:16:51.466Z,24.91
2019-03-08T15:19:21.247Z,24.91
2019-03-08T15:21:50.726Z,24.89
2019-03-08T15:24:20.219Z,24.89
2019-03-08T15:26:49.947Z,24.88
2019-03-08T15:29:19.460Z,24.87
2019-03-08T15:31:49.034Z,24.86
2019-03-08T15:34:21.315Z,24.85
2019-03-08T15:36:49.933Z,24.84
2019-03-08T15:39:20.315Z,24.86
2019-03-08T15:41:50.124Z,24.86
2019-03-08T15:44:19.611Z,24.86
2019-03-08T15:46:49.459Z,24.86
2019-03-08T15:49:19.043Z,24.84
2019-03-08T15:51:48.563Z,24.84
2019-03-08T15:54:18.073Z,24.85
2019-03-08T15:56:47.654Z,24.85
2019-03-08T15:59:17.163Z,24.85
2019-03-08T16:01:46.640Z,24.86
2019-03-08T16:04:18.958Z,24.85
2019-03-08T16:06:48.402Z,24.85
2019-03-08T16:09:18.050Z,24.84
2019-03-08T16:11:47.626Z,24.83
2019-03-08T16:14:18.910Z,24.81
2019-03-08T16:16:49.151Z,24.81
2019-03-08T16:19:20.939Z,24.79
2019-03-08T16:21:50.839Z,24.79
2019-03-08T16:24:21.554Z,24.78
2019-03-08T16:26:51.088Z,24.76
2019-03-08T16:29:20.510Z,24.74
2019-03-08T16:32:07.497Z,24.71
2019-03-08T16:34:37.917Z,24.70
2019-03-08T16:37:24.756Z,24.68
2019-03-08T16:40:10.429Z,24.65
2019-03-08T16:42:50.665Z,24.60
2019-03-08T16:45:38.779Z,24.58
2019-03-08T16:48:14.664Z,24.57
2019-03-08T16:50:56.193Z,24.56
2019-03-08T16:53:42.089Z,24.55
2019-03-08T16:56:30.488Z,24.54
2019-03-08T16:59:15.389Z,24.53
2019-03-08T17:01:55.735Z,24.50
2019-03-08T17:04:47.104Z,24.49
2019-03-08T17:07:38.389Z,24.47
2019-03-08T17:10:29.979Z,24.45
2019-03-08T17:13:37.354Z,24.44
2019-03-08T17:16:37.901Z,24.42
2019-03-08T17:19:22.178Z,24.40
2019-03-08T17:22:07.302Z,24.36
2019-03-08T17:25:10.768Z,24.35
2019-03-08T17:28:09.998Z,24.34
2019-03-08T17:31:01.885Z,24.31
2019-03-08T17:33:51.609Z,24.30
2019-03-08T17:36:42.672Z,24.27
2019-03-08T17:39:28.338Z,24.25
2019-03-08T17:42:06.535Z,24.26
2019-03-08T17:44:58.154Z,24.26
2019-03-08T17:47:45.179Z,24.24
2019-03-08T17:50:47.272Z,24.23
2019-03-08T17:53:36.861Z,24.20
2019-03-08T17:56:15.229Z,24.18
2019-03-08T17:59:02.641Z,24.15
2019-03-08T18:01:58.819Z,24.14
2019-03-08T18:05:04.640Z,24.12
2019-03-08T18:07:51.823Z,24.11
2019-03-08T18:10:38.385Z,24.09
2019-03-08T18:13:26.261Z,24.09
2019-03-08T18:16:02.670Z,24.08
2019-03-08T18:18:51.131Z,24.07
2019-03-08T18:21:38.158Z,24.08
2019-03-08T18:24:36.327Z,24.07
2019-03-08T18:27:27.812Z,24.06
2019-03-08T18:30:07.286Z,24.04
2019-03-08T18:32:59.384Z,24.03
2019-03-08T18:35:54.449Z,24.02
2019-03-08T18:38:41.514Z,24.02
2019-03-08T18:42:17.693Z,24.03
2019-03-08T18:45:39.369Z,24.02
2019-03-08T18:48:28.621Z,24.01
2019-03-08T18:51:15.958Z,24.00
2019-03-08T18:54:06.660Z,23.98
2019-03-08T18:57:17.676Z,23.98
2019-03-08T19:00:24.824Z,23.98
2019-03-08T19:03:13.710Z,23.95
2019-03-08T19:06:17.258Z,23.92
2019-03-08T19:09:03.990Z,23.92
2019-03-08T19:12:04.274Z,23.92
2019-03-08T19:15:01.594Z,23.91
2019-03-08T19:17:57.271Z,23.90
2019-03-08T19:20:45.146Z,23.88
2019-03-08T19:23:34.663Z,23.86
2019-03-08T19:26:35.197Z,23.87
2019-03-08T19:29:12.685Z,23.85
2019-03-08T19:32:07.390Z,23.84
2019-03-08T19:35:29.851Z,23.86
2019-03-08T19:38:12.910Z,23.85
2019-03-08T19:40:57.195Z,23.85
2019-03-08T19:44:06.697Z,23.86
2019-03-08T19:46:55.236Z,23.87
2019-03-08T19:49:46.663Z,23.86
2019-03-08T19:52:28.839Z,23.87
2019-03-08T19:55:23.366Z,23.86
2019-03-08T19:58:21.112Z,23.87
2019-03-08T20:01:03.717Z,23.87
2019-03-08T20:03:50.546Z,23.86
2019-03-08T20:06:42.708Z,23.86
2019-03-08T20:09:30.757Z,23.86
2019-03-08T20:12:34.533Z,23.87
2019-03-08T20:15:27.923Z,23.87
2019-03-08T20:18:25.929Z,23.87
2019-03-08T20:21:07.864Z,23.86
2019-03-08T20:23:58.593Z,23.87
2019-03-08T20:26:47.832Z,23.86
2019-03-08T20:30:20.208Z,23.85
2019-03-08T20:32:58.618Z,23.86
2019-03-08T20:35:37.602Z,23.86
2019-03-08T20:38:19.139Z,23.87
2019-03-08T20:41:16.135Z,23.87
2019-03-08T20:43:56.924Z,23.87
2019-03-08T20:46:56.388Z,23.86
2019-03-08T20:50:05.858Z,23.86
2019-03-08T20:52:37.232Z,23.85
2019-03-08T20:55:07.496Z,23.86
2019-03-08T20:57:37.164Z,23.85
2019-03-08T21:01:06.945Z,23.85
2019-03-08T21:03:15.615Z,23.84
2019-03-08T21:05:54.858Z,23.86
2019-03-08T21:09:19.713Z,23.90
2019-03-08T21:13:02.426Z,23.93
2019-03-08T21:15:53.496Z,23.94
2019-03-08T21:18:49.019Z,24.00
2019-03-08T21:21:18.831Z,24.11
2019-03-08T21:23:51.686Z,24.25
2019-03-08T21:26:21.409Z,24.36
2019-03-08T21:28:53.265Z,24.46
2019-03-08T21:31:22.849Z,24.55
2019-03-08T21:34:29.059Z,24.59
2019-03-08T21:36:58.646Z,24.58
2019-03-08T21:39:28.381Z,24.63
2019-03-08T21:42:31.924Z,24.69
2019-03-08T21:45:01.726Z,24.75
2019-03-08T21:47:31.326Z,24.76
2019-03-08T21:50:00.925Z,24.70
2019-03-08T21:53:30.261Z,24.63
2019-03-08T21:55:55.657Z,24.55
2019-03-08T21:58:25.264Z,24.45
2019-03-08T22:01:05.473Z,24.41
2019-03-08T22:03:37.509Z,24.35
2019-03-08T22:06:09.658Z,24.30
2019-03-08T22:08:45.953Z,24.27
2019-03-08T22:11:49.855Z,24.25
2019-03-08T22:14:30.983Z,24.24
2019-03-08T22:17:23.141Z,24.20
2019-03-08T22:23:59.831Z,24.15
2019-03-08T22:26:38.661Z,24.13
2019-03-08T22:29:19.034Z,24.12
2019-03-08T22:31:51.825Z,24.11
2019-03-08T22:34:23.850Z,24.10
2019-03-08T22:36:53.387Z,24.08
2019-03-08T22:39:22.886Z,24.09
2019-03-08T22:41:52.474Z,24.08
2019-03-08T22:44:21.970Z,24.08
2019-03-08T22:46:51.531Z,24.07
2019-03-08T22:49:21.075Z,24.06
2019-03-08T22:51:50.659Z,24.07
2019-03-08T22:54:20.171Z,24.06
2019-03-08T22:56:49.789Z,24.06
2019-03-08T22:59:19.288Z,24.07
2019-03-08T23:01:54.066Z,24.07
2019-03-08T23:04:23.568Z,24.06
2019-03-08T23:06:53.109Z,24.06
2019-03-08T23:09:22.804Z,24.05
2019-03-08T23:11:52.336Z,24.05
2019-03-08T23:14:21.844Z,24.05
2019-03-08T23:16:51.362Z,24.03
2019-03-08T23:19:20.932Z,24.05
2019-03-08T23:21:50.496Z,24.07
2019-03-08T23:24:20.009Z,24.09
2019-03-08T23:27:07.122Z,24.09
2019-03-08T23:29:41.616Z,24.08
2019-03-08T23:32:24.186Z,24.08
2019-03-08T23:34:53.662Z,24.08
2019-03-08T23:37:23.208Z,24.08
2019-03-08T23:39:52.838Z,24.08
2019-03-08T23:42:22.627Z,24.07
2019-03-08T23:44:52.201Z,24.05
2019-03-08T23:47:21.702Z,24.03
2019-03-08T23:49:51.544Z,24.04
2019-03-08T23:52:21.098Z,24.03
2019-03-08T23:54:50.593Z,24.02
2019-03-08T23:57:20.116Z,24.02
2019-03-08T23:59:49.607Z,24.00
